Espace membre
ImprimablePdf
Challenges > Delhalle - Dinant, 30/08/2009, BEL - La Descente de la Lesse
Liste des rapports > Delhalle - 21.9km - Classement
Recherche: Page: [1] 2 3 4 5
803 Entrées
 
Les réclamations ne sont plus acceptées, les résultats sont considérés comme définitifs.
Catégorie
PosNrNomAgeIOCLigueEquipeRéelTempsTkmMoy.RangNomPtsLocalité
1.2594BRANDENBOURG Michaël23BELRFCL1:15:591:15:593:29 17.291SEN1137
2.3NEMETH Christian38BELCABWESM1:16:021:16:033:29 17.282SEN1136MONCEAU SUR SAM
3.2644BRANDENBOURG Jean-Michel23BELRFCL1:17:221:17:223:32 16.983SEN1117
4.15DEKEYSER Jonathan28BELACBBSHRBC1:18:001:18:033:34 16.844SEN1108MUNO
5.1134VANDERBECK Yves41BELRIWARONVAU1:19:071:19:073:37 16.611VE11093MALONNE
6.2611AKHDAR Lhoucine35FRAACGN1:19:531:19:543:39 16.455SEN1083
7.238VAN DEN ABEELE Sebastian39BELACLO1:21:461:21:473:45 16.076SEN1058CARNIERES
8.2718MLECZKO Olivier38BEL1:21:531:21:533:45 16.057SEN1056
9.2334FAVEAUX Thierry46BELARCHJOGGING PLUS1:22:181:22:203:46 15.962VE11050LEIGNON
10.2075HOPPE Nicolas33BELOCAN1:22:471:22:483:47 15.878SEN1044NAMUR
11.2671OUBOUSKOUR Brahim39BELCRAC1:22:591:23:013:48 15.839SEN1041
12.1529LOMBART Frederic42BELOCAN1:23:461:23:473:50 15.683VE11031GEMBLOUX
13.2030HUNTER Trevor40GBRHANDY CROSS1:23:491:23:493:50 15.684VE11030MARLOW, BUCKS
14.659MAHIA Sebastien23BELSMAC1:24:041:24:073:51 15.6210SEN1026JAMBES
15.2041MATHOT Patrice42BELJCHSH1:24:261:24:283:52 15.565VE11021HAM-SUR-HEURE
16.2476RENOTTE Michel42BELACTEACHS1:24:461:24:483:53 15.506VE11017EPINOIS
17.11DUBOIS Michel52BELHERV1:25:071:25:083:54 15.431VE21012WELKENRAEDT
18.1290PRANCKL Michael36AUTARCH1:25:111:25:133:54 15.4211SEN1010MUNICH
19.1384PLATBROOD Paul38BELESMESM1:25:191:25:243:54 15.3912SEN1009TRAZEGNIES
20.2412LEBODA Peter28BEL1:25:521:25:543:56 15.3013SEN1002BRUSSEL
21.2446MOUCHET Stéphane35BELJACO1:26:081:26:093:57 15.2514SEN998LOMPRET
22.2702BONNAIRE Sébastien40FRA1:26:181:26:203:57 15.227VE1995
23.2390VERBRUGGHEN Johan42BELSWIFT RUNNIN1:26:261:26:283:57 15.208VE1993DENDERMONDE
24.2014DUCAMP Jacques40BELANTILOB1:26:291:26:313:58 15.199VE1992BOITSFORT
25.2581BULTOT Christian51BELARCH1:26:431:26:433:58 15.152VE2989SCHALTIN
26.2761WILLEM Olivier32BEL1:27:181:27:214:00 15.0415SEN982
27.2308DERAVET Bernard50BELZONE DE POLI1:27:311:27:344:00 15.013VE2979DURNAL
28.921ROSSI Claude51BELJOGGPLUS1:27:321:27:344:00 15.014VE2978YVOIR
29.2069KAISIN Frederic40BEL1:28:031:28:084:02 14.9110VE1971CHÂTELINEAU
30.228MARCHAL Yves39BELRUN WILD1:28:161:28:194:02 14.8816SEN969VEDRIN
31.2807MEUNIER Gérard51BELDS1:28:201:28:254:03 14.865VE2967
32.2808GRANDJEAN Pierre34BEL1:28:181:28:314:03 14.8417SEN968
33.2023GOOSSENS Julien31BELGERPINNES &1:28:301:28:314:03 14.8418SEN964GERPINNES
34.2454NOEL Dominique41BELFCHA1:28:331:28:394:03 14.8211VE1964HANNUT
35.2042MORA-CUEVAS Rafael38BELOSGATPVERT1:28:091:28:434:04 14.8119SEN968HAUTRAGE
36.2214BALANCK Hugo47BELRR TORHOUT1:28:531:28:594:04 14.7712VE1959ZEDELGEM
37.2203ADAM Bruno49BEL1:29:021:29:054:05 14.7513VE1956HANZINNE
38.1383SANCHEZ POSADA Luis49BELUSBWCACE1:29:341:29:384:06 14.6614VE1950RHODE ST GENESE
39.1458PAULY Michel48BELHERV1:29:491:29:554:07 14.6115VE1947BOLLAND
40.1108DUJEUX Stephane39BELTRI TEAM1:29:521:30:054:07 14.5920SEN946BRUGGE SINT KRU
41.2508VAN DEN BRANDEN Benoit34BEL1:30:251:30:344:09 14.5121SEN939NAMUR
42.2299FDELDICQUE Louise28BELCSDY1:30:351:30:374:09 14.501DAM937LOUVAIN-LA-NEUV
43.1017RICHARD Pierre45BELCSDYANTILOB1:30:381:30:414:09 14.4916VE1935LIMELETTE
44.327CANTELLA Massimo36BELMYSTERE1:30:431:30:474:09 14.4722SEN934BEAUVECHAIN
45.2534VRANCKEN Marc51BEL1:30:491:30:554:10 14.456VE2933TILFF
46.2296DEGEIMBRE Michel47BELARCH1:30:551:30:574:10 14.4517VE1931AWAGNE
47.2050TUTÉLAIRE Marc46BEL1:30:561:30:584:10 14.4418VE1931ANTHEIT
48.1650NEYMAN Eric41BEL1:31:041:31:074:10 14.4219VE1929HERON
49.1448HANOT Serge46BELRONVAU1:31:091:31:114:10 14.4120VE1927CEROUX MOUSTY
50.2074POLET Alain46BELSMAC1:31:211:31:264:11 14.3721VE1924BOUGE
51.2409LAMOUR Jean42BELARCHARCH1:31:421:31:444:12 14.3222VE1920FLOREFFE
52.309PAQUES Thierry43BELAMC1:32:181:32:234:14 14.2223VE1913BEAUFAYS
53.1394SOYEZ Frank44BELOXY 20001:32:221:32:254:14 14.2224VE1911NIMY
54.2310DEWULF Marc48BELRR TORHOUT1:32:261:32:314:14 14.2025VE1910
55.2450NAVET Ludovic18BEL1:32:561:33:034:15 14.121ESP904CHANLY
56.1867RUELLE Jean37BELETCHIEVR1:33:181:33:214:16 14.0823SEN900WEZEMBEEK-OPPEM
57.2257CHOFFRAY Marc45BEL1:33:171:33:254:16 14.0726VE1899DINANT
58.2562GODFRIN Marc44BELARCH1:33:371:33:404:17 14.0327VE1895GEDINNE
59.2240BRENNENRAEDTS Geoffrey31BEL1:33:261:33:424:17 14.0224SEN897SAIVE
60.141SPARACIO Bruno36BELANTONI1:33:541:33:564:18 13.9925SEN891SAMBREVILLE
61.2317FDOWNES Julia31GBRHANDY CROSS1:33:551:33:574:18 13.992DAM891READING
62.1391DOS SANTOS NEIVA Sergio36BELARCH1:34:491:34:494:20 13.8626SEN880DINANT
63.2741VOERMANS Léo32BEL1:34:441:35:004:21 13.8327SEN881
64.619LAHAYE Philippe45BELRONVAU1:34:361:35:014:21 13.8328VE1882GREZ-DOICEAU
65.2371HECQ Olivier43BEL1:34:541:35:124:21 13.8029VE1878ANDENNE
66.2349GHYSELINCK Gunther38BELRUN FOR FUN1:35:091:35:164:22 13.7928SEN875ZOTTEGEM
67.297BOUCHAT Albert42BELJOGGPLUS1:35:181:35:274:22 13.7730VE1873MEUX
68.2469POUSSEUR Dominique39BELARCHARCH1:35:251:35:324:22 13.7529SEN871LEIGNON
69.284MARTHOZ Pascal40BELCEPAL1:35:251:35:344:22 13.7531VE1871IXELLES
70.2804BOUAZZOUZ Smaïl44FRA1:35:371:35:404:23 13.7432VE1868
71.1316LABBE J.Marie49BEL1:35:311:35:424:23 13.7333VE1869EGHEZEE
72.2675SWITZYNCK Danny45BEL1:35:421:35:474:23 13.7234VE1866
73.2488SCHMIT John35BELBELGIAN JOGG1:35:571:35:594:23 13.6930SEN863
74.675TRUYERS Hugo61BELDCLA1:35:571:36:024:24 13.681VE3863LINKHOUT
75.2219BAUDOIN Philippe39BEL1:36:021:36:054:24 13.6831SEN862MIECRET
76.2665DERBAIX Patrick44BELDCLA1:36:041:36:074:24 13.6735VE1861
77.2479RICHARD André55BELARCHASICS1:36:221:36:254:25 13.637VE2857SAINT-SERVAIS
78.2012DE NARDI Jean-Carlo47BEL1:36:221:36:264:25 13.6336VE1857SAINT-SERVAIS
79.2606DUMORTIER Benjamin25BELFLUO1:36:241:36:284:25 13.6232SEN856
80.2783CARUSO Matteo26ITABTC1:36:241:36:294:25 13.6233SEN856
81.2738CANISIUS Pierre-Olivier37BELLE JOUR1:35:511:36:354:25 13.6034SEN861
82.2279DE LANGE Sven37BEL1:36:311:36:394:25 13.6035SEN854ZWALM
83.2717MUYLDERMANS Stephan41BEL1:36:381:36:414:25 13.5937VE1852
84.2547DESSY Michael38BEL1:36:391:36:434:25 13.5936SEN851BRAINE-LE-CHATE
85.2564DELESTREE Vincent33BELMILLE P1:36:431:36:534:26 13.5637SEN850
86.2782GRANDJEAN Benoît41BEL1:36:361:36:594:26 13.5538VE1851
87.1061RIGUELLE Francois28BELFLEUFLEU1:36:231:37:004:26 13.5538SEN853SOMBREFFE
88.2504TOURNEUR Frédéric34BEL1:36:511:37:024:26 13.5439SEN847BRUXELLES
89.1608VANDENBERGHE Nicolas19BELSMAC1:37:001:37:094:27 13.532ESP845JAMBES
90.2641LECLERCQ Eddy53BELKAIN BRUYERE1:36:221:37:134:27 13.528VE2852
91.2602VERBEECK Bart48BEL1:37:071:37:224:27 13.5039VE1844
92.604DESSAMBRE Marcel60BELOCANJOGGPLUS1:37:271:37:294:28 13.482VE3839NAMECHE
93.1844BILLY Jacques-Henry39BELHRC1:37:291:37:344:28 13.4740SEN839CHATILLON
94.1765VAN DER LINDEN Paul60BELRCNAMUR1:37:321:37:374:28 13.463VE3838MALONNE
95.2801POSTIAUX Jonathan28BEL1:37:351:37:404:28 13.4541SEN837
96.4002RUYMEN Wouter20BEL1:37:211:37:434:28 13.4542SEN839KOZEN
97.1631CADO Paul49BELFLEUESM1:37:101:37:464:28 13.4440VE1840LIGNY
98.2251CAMMARANO Antonio46BELFLEU1:37:091:37:464:28 13.4441VE1840BALÂTRE
99.2043MORGAN Charles31GBR1:37:481:37:544:29 13.4243SEN833BRUXELLES
100.2442FMEUNIER Claire47BELARCH1:37:511:37:584:29 13.411AI1832ANSEREMME
101.2447MOZGAWA Patrick38FRA1:37:481:38:004:29 13.4144SEN832LE CATEAU
102.2813FIGEYS Manuel46BEL1:38:011:38:184:30 13.3742VE1829
103.1069DUTRIEUX Fernand38BELVELAINES1:38:221:38:244:30 13.3545SEN825BAUDOUR
104.2629MACQ Vincent40BEL1:38:341:38:394:31 13.3243VE1822
105.2455NOU Vam37FRA1:38:041:38:404:31 13.3246SEN827BRUXELLES
106.2670VERVAET Bert-Albert58BELRCG1:38:281:38:424:31 13.319VE2823
107.2526VERHEYEN Cedric31BEL1:38:331:38:514:31 13.2947SEN822ON
108.485ROSILLON Dominique52BELARCH1:38:481:38:574:32 13.2810VE2818SOREE
109.2375HEYDEN Christian45BEL1:38:561:39:004:32 13.2744VE1816HAVRENNE-ROCHEF
110.2648AMSTERS Alain38BELRC NAMUR1:38:521:39:064:32 13.2648SEN817BOIS DE VILLERS
111.2614FOGUENNE Olivier38BEL1:38:591:39:074:32 13.2649SEN815
112.2463PIERARD Alexandre33BEL1000 PATTES1:39:081:39:124:32 13.2550SEN813LIMELETTE
113.2445MOLITOR Andre48BELARCH1:39:101:39:144:32 13.2445VE1812HARGIMONT
114.2598FCHARLOT Christelle35BEL1:39:151:39:174:33 13.233DAM811
115.2609QUINIOU Thierry43FRA1:39:171:39:224:33 13.2246VE1810
116.2798PIRARD Olivier35BEL1:39:131:39:224:33 13.2251SEN810
117.2773BOERO Roberto46BEL1:39:201:39:304:33 13.2147VE1809BRUXELLES
118.2325DURIAU Jean Luc61BELBELGIAN JOGG1:39:041:39:394:34 13.194VE3811
119.2453NEDJARI Anis27BEL1:39:251:39:444:34 13.1852SEN807JEMEPPE SUR SAM
120.2337FIVET Marc41BELBAIL RUN1:39:251:39:454:34 13.1748VE1807
121.2764CASTERMANS David38BEL1:39:031:39:464:34 13.1753SEN810
122.2313DIANCOURT Mickaël39FRAGRACCASR RENWEZ1:39:171:39:464:34 13.1754SEN808LAVAL MORENCY
123.1425SCAILLET Vincent40BEL1:39:391:39:474:34 13.1749VE1803HEER
124.2530VERWACHT Quentin36BEL1:39:371:39:504:34 13.1655SEN803AUDERGHEM
125.2556FSCHAFFRATH Ginette44BEL1:39:491:39:524:34 13.162AI1801COMBLAIN-FAIRON
126.2387JADOT Frédéric37BELARCH1:39:581:40:004:34 13.1456SEN799DINANT
127.2605LUXEN Jean-Michel43BEL1:40:081:40:144:35 13.1150VE1796
128.2781DEJARDIN Frédéric38BEL1:40:071:40:164:35 13.1157SEN796
129.1484ORVAL Alain40BELHAC1:40:271:40:304:36 13.0751VE1792CINEY
130.2057VANDEPUTTE Pascal40BELCSL1:40:261:40:304:36 13.0752VE1792SPA
131.2568FTRIBUT Jennifer23FRAVOUZIERS OXY1:40:201:40:344:36 13.074DAM792
132.2686EL KALISCH Abdez49BEL1:40:441:40:494:37 13.0353VE1788
133.1380GIVRON Regis19BELWAIKIKI1:40:101:40:504:37 13.033ESP794JUMET
134.623PISCART Pierre49BELMOHAOXY20001:40:391:40:534:37 13.0254VE1788MONS
135.2545JOSSE Julien24FRA1:40:321:41:024:37 13.0158SEN789
136.2543SECHEHAYE Michael30BEL1:40:401:41:034:37 13.0059SEN787NAMUR
137.727LEUS Stefan42BEL1:40:541:41:124:38 12.9855VE1784HOLSBEEK
138.2599JEANTY 51FRAFFA1:40:411:41:234:38 12.9611VE2786
139.2273DAVID Daniel53FRARUMBA1:41:221:41:264:38 12.9512VE2778LES CLAYES SOUS
140.2752XAVIER Patrick49FRA1:40:371:41:284:38 12.9556VE1786
141.2421LICHTHERTE Eric35BEL1:41:201:41:304:39 12.9560SEN778HULSONNIAUX
142.2524FVERDONCK Els43BELRR TORHOUT1:41:281:41:324:39 12.943AI1777TORHOUT
143.2557VERSCHAEVE Bart34BELRR TORHOUT1:41:251:41:324:39 12.9461SEN776LICHTERVELDE
144.2292DEBEUF Nico38BELRR TORHOUT1:41:251:41:334:39 12.9462SEN776LICHTERVELDE
145.906DELVAUX Paul65BELACACAMPFOOT1:41:301:41:354:39 12.945VE3775DIEPENBEEK
146.125FVAN DER ZWALMEN Sabine29BELRIWA1:41:371:41:404:39 12.925DAM773LASNE
147.2244BRUYÈRE Steve25BEL1:41:261:41:434:39 12.9263SEN774FRANIÈRE
148.2250CALLIER Philippe46FRAEJCA1:41:301:41:444:39 12.9257VE1774
149.497WYNS Jos57BELHULSHEISTSE BE1:41:461:41:524:40 12.9013VE2770HALLAAR
150.521RAEYMAEKERS Ludovic55BELBRABO1:41:531:42:084:40 12.8714VE2769EKEREN
151.2386JACQUES Frederic38BELARCH1:42:081:42:134:41 12.8664SEN766CINEY
152.2241BROHET Frédéric41BEL1:41:571:42:154:41 12.8558VE1767MARBAIS
153.533MARTIN Laurent28BELHRC1:42:121:42:164:41 12.8565SEN764LEGLISE
154.2669BEAUJEAN Jean-Christophe44BEL1:42:151:42:204:41 12.8459VE1764
155.1841FFAVEAUX Patricia42BELARCH1:42:181:42:224:41 12.844AI1762CINEY
156.1082CEUPPENS Geert36BEL1:42:251:42:304:41 12.8266SEN761DUFFEL
157.2031ICKET Erik53BEL1:42:311:42:364:42 12.8115VE2759ACHET
158.1404FLORENT Xavier31BEL1:42:341:42:384:42 12.8067SEN759NAMUR
159.2704AUDRAN Frédéric36FRA1:42:251:42:424:42 12.7968SEN759
160.2625FRANCOTTE Frédéric43BELLES RQUINS M1:42:211:42:444:42 12.7960VE1760
161.2006CONRARD Edgard44BEL1:41:571:42:494:42 12.7861VE1764HABAY-LA-NEUVE
162.1457COLPAERT Guido71BEL1:42:531:42:564:43 12.771VE4753WEPION
163.1415LOUIS Vincent43BELARCH1:42:551:42:574:43 12.7662VE1753CINEY
164.2640VERCAMMEN Gunther39BEL1:42:221:42:574:43 12.7669SEN758
165.914FVAN HOOF Wella46BELLIER1:42:531:43:004:43 12.765AI1752BERLAAR
166.2353GLORIEUX Frédéric37BELACTIRISK1:43:071:43:124:43 12.7370SEN749ANDERLECHT
167.2809PUYLAERT Dominique45BELRCN1:43:101:43:164:43 12.7263VE1749
168.1337AUBERT Serge54BEL1:43:101:43:194:44 12.7216VE2748GERPINNES
169.2572ROSIER Dany49BEL1:43:211:43:264:44 12.7064VE1746
170.1406COUVREUR Jean-Michel36BELBTC1:43:171:43:354:44 12.6971SEN746IXELLES
170.556RATINCKX Jean Philippe21BELRIWAFOUL PLAIS1:43:151:43:354:44 12.6971SEN746BIERGES
172.1206GILON Marc46BELRCNAMUR1:43:221:43:354:44 12.6965VE1745NAMUR
173.2379HUBERT Christophe45BEL1:43:281:43:384:44 12.6866VE1743LUSTIN
174.1947VAN LANDUYT J-Yves45BEL1:43:191:43:434:45 12.6767VE1744OBOURG
175.2542MATTERN Berti31BEL1:43:351:43:484:45 12.6673SEN741CHAUDFONTAINE
176.1271ROMBAUX Marc49BELCSDY1:42:571:43:494:45 12.6668VE1747LOUVAIN LA NEUV
177.1136GAUTIER Jacques47BEL1:43:421:43:504:45 12.6569VE1739MEUX
178.2229BERTONI Joël51BEL1:43:421:43:534:45 12.6517VE2738SERAING
179.2430MAREY Chris25BEL1:43:551:44:024:46 12.6374SEN736GENT
180.2237BOURCY Eric49BEL1:43:221:44:114:46 12.6170VE1741ROCHEFORT
181.1098FBUZIN Donatienne42BELARCH1:44:091:44:134:46 12.616AI1733HAN SUR LESSE
182.2679MIGNON Jean-Pol40BELJOYEUX JOGGE1:43:591:44:174:46 12.6071VE1734
183.2368HAUSMAN Damien35BELARCH1:44:141:44:304:47 12.5775SEN731MIECRET
184.2797VAN KERREBROECK Pol58BEL1:44:221:44:304:47 12.5718VE2729
185.1883MAURO Calogero69BEL1:44:281:44:364:47 12.566VE3728
186.1968WALLEE Alain53BELTENDONS1:44:181:44:414:47 12.5519VE2729LA HULPE
187.2642WAGNER Sébastien37FRASOMMER1:44:411:44:474:48 12.5476SEN725
188.2493SMEULDERS Thomas37BELTEAM HARAKA1:44:361:44:524:48 12.5377SEN725NIEL
189.2321DUBOIS Sébastien32BELLA THURE1:44:571:44:574:48 12.5278SEN722WELLIN
190.2272DAVE Patrick42BEL1:44:461:45:014:48 12.5172VE1723MIÉCRET
191.2295DECHARNEUX Jérôme31BEL1:44:431:45:124:49 12.4979SEN723OVERIJSE
192.1112FHANSSEN Bernadette45BELARCH1:45:131:45:174:49 12.487AI1718CINEY
193.2739SKUDIEWSKI Grégory30BELLE JOUR1:44:351:45:184:49 12.4880SEN724
194.2034JOCKIN Claude43BEL1:45:111:45:224:49 12.4773VE1717HERMALLE SOUS A
195.2275DE CLERCQ Johny51BELRR TORHOUT1:45:201:45:254:49 12.4620VE2715
196.1464DESSEILLE Ernest55BEL1:44:421:45:264:49 12.4621VE2721WÉPION
197.2064WAERTS Alain56BELSERSERUNNER1:45:261:45:314:50 12.4522VE2713DURBUY
198.2225BENOIT Michel53BEL1:45:261:45:364:50 12.4423VE2713LA LOUVIÈRE
199.2354GODAERT Pol38BELBELGIAN JOGG1:45:321:45:404:50 12.4481SEN712LA LOUVIERE
200.1229HOUSSIER Didier44BEL1:45:151:45:514:50 12.4174VE1714VILVOORDE
DNF: abandon; DSQ: disqualifié; Vitesse en km/h